createdAt,value
2017-09-16T00:00:14.290Z,0.00
2017-09-16T00:01:14.289Z,0.00
2017-09-16T00:02:14.322Z,0.00
2017-09-16T00:03:14.328Z,0.00
2017-09-16T00:04:14.347Z,0.00
2017-09-16T00:05:14.364Z,0.00
2017-09-16T00:06:14.381Z,0.00
2017-09-16T00:07:14.406Z,0.00
2017-09-16T00:08:14.419Z,0.00
2017-09-16T00:09:14.436Z,0.00
2017-09-16T00:10:14.461Z,0.00
2017-09-16T00:11:14.473Z,0.00
2017-09-16T00:12:14.490Z,0.00
2017-09-16T00:13:14.510Z,0.00
2017-09-16T00:14:14.525Z,0.00
2017-09-16T00:15:14.544Z,0.00
2017-09-16T00:16:14.573Z,0.00
2017-09-16T00:17:14.578Z,0.00
2017-09-16T00:18:14.606Z,0.00
2017-09-16T00:19:14.616Z,0.00
2017-09-16T00:20:14.640Z,0.00
2017-09-16T00:21:14.651Z,0.00
2017-09-16T00:22:14.673Z,0.00
2017-09-16T00:23:14.688Z,0.00
2017-09-16T00:24:14.708Z,0.00
2017-09-16T00:25:14.729Z,0.00
2017-09-16T00:26:14.743Z,0.00
2017-09-16T00:27:14.761Z,0.00
2017-09-16T00:28:14.775Z,0.00
2017-09-16T00:29:14.801Z,0.00
2017-09-16T00:30:14.821Z,0.00
2017-09-16T00:31:14.832Z,0.00
2017-09-16T00:32:14.855Z,0.00
2017-09-16T00:33:14.866Z,0.00
2017-09-16T00:34:14.884Z,0.00
2017-09-16T00:35:14.903Z,0.00
2017-09-16T00:36:14.919Z,0.00
2017-09-16T00:37:14.940Z,0.00
2017-09-16T00:38:14.967Z,0.00
2017-09-16T00:39:14.979Z,0.00
2017-09-16T00:40:14.993Z,0.00
2017-09-16T00:41:15.008Z,0.00
2017-09-16T00:42:15.038Z,0.00
2017-09-16T00:43:15.055Z,0.00
2017-09-16T00:44:15.063Z,0.00
2017-09-16T00:45:15.089Z,0.00
2017-09-16T00:46:15.103Z,0.00
2017-09-16T00:47:15.116Z,0.00
2017-09-16T00:48:15.140Z,0.00
2017-09-16T00:49:15.156Z,0.00
2017-09-16T00:50:15.177Z,0.00
2017-09-16T00:51:15.189Z,0.00
2017-09-16T00:52:15.217Z,0.00
2017-09-16T00:53:15.223Z,0.00
2017-09-16T00:54:15.249Z,0.00
2017-09-16T00:55:15.262Z,0.00
2017-09-16T00:56:15.283Z,0.00
2017-09-16T00:57:15.297Z,0.00
2017-09-16T00:58:15.315Z,0.00
2017-09-16T00:59:15.330Z,0.00
2017-09-16T01:00:15.351Z,0.00
2017-09-16T01:01:15.369Z,0.00
2017-09-16T01:02:15.387Z,0.00
2017-09-16T01:03:15.406Z,0.00
2017-09-16T01:04:15.420Z,0.00
2017-09-16T01:05:15.443Z,0.00
2017-09-16T01:06:15.454Z,0.00
2017-09-16T01:07:15.475Z,0.00
2017-09-16T01:08:15.500Z,0.00
2017-09-16T01:09:15.510Z,0.00
2017-09-16T01:10:15.527Z,0.00
2017-09-16T01:11:15.550Z,0.00
2017-09-16T01:12:15.570Z,0.00
2017-09-16T01:13:15.584Z,0.00
2017-09-16T01:14:15.601Z,0.00
2017-09-16T01:15:15.615Z,0.00
2017-09-16T01:16:15.636Z,0.00
2017-09-16T01:17:15.662Z,0.00
2017-09-16T01:18:15.685Z,0.00
2017-09-16T01:19:15.690Z,0.00
2017-09-16T01:20:15.703Z,0.00
2017-09-16T01:21:15.726Z,0.00
2017-09-16T01:22:15.754Z,0.00
2017-09-16T01:23:15.760Z,0.00
2017-09-16T01:24:15.781Z,0.00
2017-09-16T01:25:15.794Z,0.00
2017-09-16T01:26:15.817Z,0.00
2017-09-16T01:27:15.834Z,0.00
2017-09-16T01:28:15.856Z,0.00
2017-09-16T01:29:15.865Z,0.00
2017-09-16T01:30:15.888Z,0.00
2017-09-16T01:31:15.907Z,0.00
2017-09-16T01:32:15.921Z,0.00
2017-09-16T01:33:15.940Z,0.00
2017-09-16T01:34:15.956Z,0.00
2017-09-16T01:35:15.977Z,0.00
2017-09-16T01:36:15.991Z,0.00
2017-09-16T01:37:16.019Z,0.00
2017-09-16T01:38:16.031Z,0.00
2017-09-16T01:39:16.046Z,0.00
2017-09-16T01:40:16.068Z,0.00
2017-09-16T01:41:16.079Z,0.00
2017-09-16T01:42:16.105Z,0.00
2017-09-16T01:43:16.118Z,0.00
2017-09-16T01:44:16.134Z,0.00
2017-09-16T01:45:16.153Z,0.00
2017-09-16T01:46:16.181Z,0.00
2017-09-16T01:47:16.188Z,0.00
2017-09-16T01:48:16.209Z,0.00
2017-09-16T01:49:16.225Z,0.00
2017-09-16T01:50:16.244Z,0.00
2017-09-16T01:51:16.267Z,0.00
2017-09-16T01:52:16.285Z,0.00
2017-09-16T01:53:16.295Z,0.00
2017-09-16T01:54:16.311Z,0.00
2017-09-16T01:55:16.330Z,0.00
2017-09-16T01:56:16.350Z,0.00
2017-09-16T01:57:16.371Z,0.00
2017-09-16T01:58:16.389Z,0.00
2017-09-16T01:59:16.406Z,0.00
2017-09-16T02:00:16.433Z,0.00
2017-09-16T02:01:16.441Z,0.00
2017-09-16T02:02:16.454Z,0.00
2017-09-16T02:03:16.486Z,0.00
2017-09-16T02:04:16.493Z,0.00
2017-09-16T02:05:16.507Z,0.00
2017-09-16T02:06:16.525Z,0.00
2017-09-16T02:07:16.543Z,0.00
2017-09-16T02:08:16.565Z,0.00
2017-09-16T02:09:16.578Z,0.00
2017-09-16T02:10:16.599Z,0.00
2017-09-16T02:11:16.621Z,0.00
2017-09-16T02:12:16.642Z,0.00
2017-09-16T02:13:16.646Z,0.00
2017-09-16T02:14:16.666Z,0.00
2017-09-16T02:15:16.687Z,0.00
2017-09-16T02:16:16.707Z,0.00
2017-09-16T02:17:16.719Z,0.00
2017-09-16T02:18:16.744Z,0.00
2017-09-16T02:19:16.767Z,0.00
2017-09-16T02:20:16.793Z,0.00
2017-09-16T02:21:16.792Z,0.00
2017-09-16T02:22:16.812Z,0.00
2017-09-16T02:23:16.831Z,0.00
2017-09-16T02:24:16.842Z,0.00
2017-09-16T02:25:16.861Z,0.00
2017-09-16T02:26:16.879Z,0.00
2017-09-16T02:27:16.897Z,0.00
2017-09-16T02:28:16.932Z,0.00
2017-09-16T02:29:16.935Z,0.00
2017-09-16T02:30:16.958Z,0.00
2017-09-16T02:31:16.972Z,0.00
2017-09-16T02:32:16.983Z,0.00
2017-09-16T02:33:17.003Z,0.00
2017-09-16T02:34:17.028Z,0.00
2017-09-16T02:35:17.039Z,0.00
2017-09-16T02:36:17.057Z,0.00
2017-09-16T02:37:17.084Z,0.00
2017-09-16T02:38:17.091Z,0.00
2017-09-16T02:39:17.111Z,0.00
2017-09-16T02:40:17.129Z,0.00
2017-09-16T02:41:17.145Z,0.00
2017-09-16T02:42:17.161Z,0.00
2017-09-16T02:43:17.181Z,0.00
2017-09-16T02:44:17.193Z,0.00
2017-09-16T02:45:17.219Z,0.00
2017-09-16T02:46:17.230Z,0.00
2017-09-16T02:47:17.254Z,0.00
2017-09-16T02:48:17.271Z,0.00
2017-09-16T02:49:17.285Z,0.00
2017-09-16T02:50:17.303Z,0.00
2017-09-16T02:51:17.328Z,0.00
2017-09-16T02:52:17.345Z,0.00
2017-09-16T02:53:17.366Z,0.00
2017-09-16T02:54:17.378Z,0.00
2017-09-16T02:55:17.394Z,0.00
2017-09-16T02:56:17.410Z,0.00
2017-09-16T02:57:17.429Z,0.00
2017-09-16T02:58:17.449Z,0.00
2017-09-16T02:59:17.465Z,0.00
2017-09-16T03:00:17.477Z,0.00
2017-09-16T03:01:17.498Z,0.00
2017-09-16T03:02:17.517Z,0.00
2017-09-16T03:03:17.532Z,0.00
2017-09-16T03:04:17.547Z,0.00
2017-09-16T03:05:17.564Z,0.00
2017-09-16T03:06:17.589Z,0.00
2017-09-16T03:07:17.611Z,0.00
2017-09-16T03:08:17.622Z,0.00
2017-09-16T03:09:17.633Z,0.00
2017-09-16T03:10:17.656Z,0.00
2017-09-16T03:11:17.674Z,0.00
2017-09-16T03:12:17.689Z,0.00
2017-09-16T03:13:17.704Z,0.00
2017-09-16T03:14:17.735Z,0.00
2017-09-16T03:15:17.743Z,0.00
2017-09-16T03:16:17.764Z,0.00
2017-09-16T03:17:17.780Z,0.00
2017-09-16T03:18:17.794Z,0.00
2017-09-16T03:19:17.812Z,0.00
2017-09-16T03:20:17.830Z,0.00
2017-09-16T03:21:17.842Z,0.00
2017-09-16T03:22:17.862Z,0.00
2017-09-16T03:23:17.884Z,0.00
2017-09-16T03:24:17.903Z,0.00
2017-09-16T03:25:17.924Z,0.00
2017-09-16T03:26:17.931Z,0.00
2017-09-16T03:27:17.951Z,0.00
2017-09-16T03:28:17.970Z,0.00
2017-09-16T03:29:17.988Z,0.00
2017-09-16T03:30:18.005Z,0.00
2017-09-16T03:31:18.026Z,0.00
2017-09-16T03:32:18.041Z,0.00
2017-09-16T03:33:18.052Z,0.00
2017-09-16T03:34:18.073Z,0.00
2017-09-16T03:35:18.093Z,0.00
2017-09-16T03:36:18.111Z,0.00
2017-09-16T03:37:18.127Z,0.00
2017-09-16T03:38:18.145Z,0.00
2017-09-16T03:39:18.158Z,0.00
2017-09-16T03:40:18.177Z,0.00
2017-09-16T03:41:18.204Z,0.00
2017-09-16T03:42:18.210Z,0.00
2017-09-16T03:43:18.231Z,0.00
2017-09-16T03:44:18.249Z,0.00
2017-09-16T03:45:18.276Z,0.00
2017-09-16T03:46:18.285Z,0.00
2017-09-16T03:47:18.303Z,0.00
2017-09-16T03:48:18.318Z,0.00
2017-09-16T03:49:18.335Z,0.00
2017-09-16T03:50:18.356Z,0.00
2017-09-16T03:51:18.371Z,0.00
2017-09-16T03:52:18.393Z,0.00
2017-09-16T03:53:18.407Z,0.00
2017-09-16T03:54:18.422Z,0.00
2017-09-16T03:55:18.440Z,0.00
2017-09-16T03:56:18.460Z,0.00
2017-09-16T03:57:18.482Z,0.00
2017-09-16T03:58:18.497Z,0.00
2017-09-16T03:59:18.513Z,0.00
2017-09-16T04:00:18.530Z,0.00
2017-09-16T04:01:18.546Z,0.00
2017-09-16T04:02:18.566Z,0.00
2017-09-16T04:03:18.579Z,0.00
2017-09-16T04:04:18.600Z,0.00
2017-09-16T04:05:18.614Z,0.00
2017-09-16T04:06:18.631Z,0.00
2017-09-16T04:07:18.653Z,0.00
2017-09-16T04:08:18.666Z,0.00
2017-09-16T04:09:18.686Z,0.00
2017-09-16T04:10:18.703Z,0.00
2017-09-16T04:11:18.723Z,0.00
2017-09-16T04:12:18.739Z,0.00
2017-09-16T04:13:18.756Z,0.00
2017-09-16T04:14:18.770Z,0.00
2017-09-16T04:15:18.787Z,0.00
2017-09-16T04:16:18.811Z,4.00
2017-09-16T04:17:18.826Z,4.00
2017-09-16T04:18:18.846Z,4.00
2017-09-16T04:19:18.856Z,4.00
2017-09-16T04:20:18.877Z,4.00
2017-09-16T04:21:18.895Z,0.00
2017-09-16T04:22:18.914Z,0.00
2017-09-16T04:23:18.929Z,4.00
2017-09-16T04:24:18.946Z,4.00
2017-09-16T04:25:18.959Z,4.00
2017-09-16T04:26:18.976Z,4.00
2017-09-16T04:27:18.997Z,4.00
2017-09-16T04:28:19.016Z,8.00
2017-09-16T04:29:19.033Z,4.00
2017-09-16T04:30:19.056Z,8.00
2017-09-16T04:31:19.073Z,8.00
2017-09-16T04:32:19.084Z,12.00
2017-09-16T04:33:19.100Z,12.00
2017-09-16T04:34:19.116Z,16.00
2017-09-16T04:35:19.135Z,16.00
2017-09-16T04:36:19.153Z,20.00
2017-09-16T04:37:19.173Z,24.00
2017-09-16T04:38:19.196Z,28.00
2017-09-16T04:39:19.211Z,28.00
2017-09-16T04:40:19.222Z,36.00
2017-09-16T04:41:19.240Z,44.00
2017-09-16T04:42:19.259Z,52.00
2017-09-16T04:43:19.272Z,60.00
2017-09-16T04:44:19.296Z,68.00
2017-09-16T04:45:19.310Z,80.00
2017-09-16T04:46:19.327Z,92.00
2017-09-16T04:47:19.351Z,108.00
2017-09-16T04:48:19.361Z,124.00
2017-09-16T04:49:19.379Z,140.00
2017-09-16T04:50:19.393Z,160.00
2017-09-16T04:51:19.411Z,180.00
2017-09-16T04:52:19.449Z,196.00
2017-09-16T04:53:19.448Z,208.00
2017-09-16T04:54:19.462Z,220.00
2017-09-16T04:55:19.484Z,236.00
2017-09-16T04:56:19.500Z,268.00
2017-09-16T04:57:19.513Z,308.00
2017-09-16T04:58:19.532Z,348.00
2017-09-16T04:59:19.550Z,388.00
2017-09-16T05:00:19.567Z,436.00
2017-09-16T05:01:19.580Z,476.00
2017-09-16T05:02:19.602Z,516.00
2017-09-16T05:03:19.621Z,556.00
2017-09-16T05:04:19.645Z,596.00
2017-09-16T05:05:19.654Z,660.00
2017-09-16T05:06:19.671Z,688.00
2017-09-16T05:07:19.691Z,712.00
2017-09-16T05:08:19.708Z,752.00
2017-09-16T05:09:19.719Z,812.00
2017-09-16T05:10:19.739Z,904.00
2017-09-16T05:11:19.755Z,980.00
2017-09-16T05:12:19.772Z,1028.00
2017-09-16T05:13:19.797Z,1112.00
2017-09-16T05:14:19.809Z,1196.00
2017-09-16T05:15:19.832Z,1256.00
2017-09-16T05:16:19.841Z,1276.00
2017-09-16T05:17:19.866Z,1364.00
2017-09-16T05:18:19.879Z,1452.00
2017-09-16T05:19:19.894Z,1576.00
2017-09-16T05:20:19.917Z,1736.00
2017-09-16T05:21:19.924Z,1820.00
2017-09-16T05:22:19.947Z,1804.00
2017-09-16T05:23:19.966Z,1896.00
2017-09-16T05:24:19.986Z,2044.00
2017-09-16T05:25:19.997Z,2164.00
2017-09-16T05:26:20.018Z,2196.00
2017-09-16T05:27:20.035Z,2032.00
2017-09-16T05:28:20.049Z,1852.00
2017-09-16T05:29:20.073Z,1760.00
2017-09-16T05:30:20.095Z,1596.00
2017-09-16T05:31:20.103Z,1528.00
2017-09-16T05:32:20.123Z,1540.00
2017-09-16T05:33:20.288Z,1656.00
2017-09-16T05:34:20.167Z,1712.00
2017-09-16T05:35:20.182Z,1780.00
2017-09-16T05:36:20.190Z,1760.00
2017-09-16T05:37:20.214Z,1812.00
2017-09-16T05:38:20.227Z,1904.00
2017-09-16T05:39:20.240Z,1900.00
2017-09-16T05:40:20.258Z,2060.00
2017-09-16T05:41:20.275Z,2012.00
2017-09-16T05:42:20.293Z,1972.00
2017-09-16T05:43:20.310Z,1980.00
2017-09-16T05:44:20.328Z,2008.00
2017-09-16T05:45:20.346Z,2072.00
2017-09-16T05:46:20.366Z,2036.00
2017-09-16T05:47:20.380Z,2128.00
2017-09-16T05:48:20.402Z,2152.00
2017-09-16T05:49:20.415Z,2056.00
2017-09-16T05:50:20.437Z,2084.00
2017-09-16T05:51:20.452Z,2216.00
2017-09-16T05:52:20.472Z,2200.00
2017-09-16T05:53:20.490Z,2240.00
2017-09-16T05:54:20.505Z,2180.00
2017-09-16T05:55:20.528Z,2156.00
2017-09-16T05:56:20.542Z,2196.00
2017-09-16T05:57:20.558Z,2320.00
2017-09-16T05:58:20.580Z,2488.00
2017-09-16T05:59:20.604Z,2536.00
2017-09-16T06:00:20.616Z,2560.00
2017-09-16T06:01:20.634Z,2544.00
2017-09-16T06:02:20.655Z,2680.00
2017-09-16T06:03:20.675Z,2596.00
2017-09-16T06:04:20.688Z,2624.00
2017-09-16T06:05:20.706Z,2788.00
2017-09-16T06:06:20.721Z,2672.00
2017-09-16T06:07:20.748Z,2908.00
2017-09-16T06:08:20.767Z,2856.00
2017-09-16T06:09:20.780Z,3192.00
2017-09-16T06:10:20.792Z,3360.00
2017-09-16T06:11:20.815Z,3364.00
2017-09-16T06:12:20.828Z,3128.00
2017-09-16T06:13:20.855Z,3180.00
2017-09-16T06:14:20.868Z,3404.00
2017-09-16T06:15:20.885Z,3228.00
2017-09-16T06:16:20.904Z,2972.00
2017-09-16T06:17:20.924Z,3080.00
2017-09-16T06:18:20.941Z,2908.00
2017-09-16T06:19:20.958Z,2896.00
2017-09-16T06:20:20.979Z,2928.00
2017-09-16T06:21:20.992Z,2844.00
2017-09-16T06:22:21.011Z,2892.00
2017-09-16T06:23:21.030Z,3192.00
2017-09-16T06:24:21.052Z,3204.00
2017-09-16T06:25:21.064Z,3372.00
2017-09-16T06:26:21.082Z,3616.00
2017-09-16T06:27:21.113Z,3396.00
2017-09-16T06:28:21.133Z,3316.00
2017-09-16T06:29:21.137Z,3164.00
2017-09-16T06:30:21.173Z,3124.00
2017-09-16T06:31:21.173Z,3292.00
2017-09-16T06:32:21.196Z,3332.00
2017-09-16T06:33:21.210Z,3664.00
2017-09-16T06:34:21.226Z,3508.00
2017-09-16T06:35:21.246Z,3544.00
2017-09-16T06:36:21.263Z,3520.00
2017-09-16T06:37:21.284Z,3936.00
2017-09-16T06:38:21.314Z,3800.00
2017-09-16T06:39:21.324Z,3768.00
2017-09-16T06:40:21.349Z,3608.00
2017-09-16T06:41:21.352Z,3492.00
2017-09-16T06:42:21.368Z,3408.00
2017-09-16T06:43:21.394Z,3512.00
2017-09-16T06:44:21.407Z,3260.00
2017-09-16T06:45:21.422Z,3280.00
2017-09-16T06:46:21.443Z,3140.00
2017-09-16T06:47:21.479Z,3380.00
2017-09-16T06:48:21.476Z,3192.00
2017-09-16T06:49:21.496Z,3140.00
2017-09-16T06:50:21.522Z,3248.00
2017-09-16T06:51:21.539Z,3548.00
2017-09-16T06:52:21.559Z,3812.00
2017-09-16T06:53:21.575Z,3844.00
2017-09-16T06:54:21.588Z,4100.00
2017-09-16T06:55:21.608Z,4000.00
2017-09-16T06:56:21.633Z,3956.00
2017-09-16T06:57:21.657Z,3652.00
2017-09-16T06:58:21.665Z,3484.00
2017-09-16T06:59:21.677Z,3492.00
2017-09-16T07:00:21.713Z,3404.00
2017-09-16T07:01:21.722Z,3496.00
2017-09-16T07:02:21.757Z,3504.00
2017-09-16T07:03:21.878Z,3684.00
2017-09-16T07:04:21.777Z,3608.00
2017-09-16T07:05:21.821Z,3668.00
2017-09-16T07:06:21.807Z,4228.00
2017-09-16T07:07:21.828Z,4760.00
2017-09-16T07:08:21.917Z,4376.00
2017-09-16T07:09:21.868Z,4144.00
2017-09-16T07:10:21.886Z,4024.00
2017-09-16T07:11:21.916Z,4592.00
2017-09-16T07:12:21.946Z,4964.00
2017-09-16T07:13:21.940Z,4892.00
2017-09-16T07:14:21.956Z,5048.00
2017-09-16T07:15:21.976Z,5364.00
2017-09-16T07:16:21.995Z,5704.00
2017-09-16T07:17:22.052Z,6384.00
2017-09-16T07:18:22.047Z,7132.00
2017-09-16T07:19:22.060Z,6856.00
2017-09-16T07:20:22.074Z,7824.00
2017-09-16T07:21:22.087Z,7640.00
2017-09-16T07:22:22.143Z,7644.00
2017-09-16T07:23:22.133Z,6968.00
2017-09-16T07:24:22.144Z,7116.00
2017-09-16T07:25:22.166Z,7456.00
2017-09-16T07:26:22.182Z,8476.00
2017-09-16T07:27:22.199Z,8280.00
2017-09-16T07:28:22.220Z,8456.00
2017-09-16T07:29:22.243Z,7460.00
2017-09-16T07:30:22.257Z,7772.00
2017-09-16T07:31:22.288Z,9080.00
2017-09-16T07:32:22.301Z,7872.00
2017-09-16T07:33:22.319Z,7728.00
2017-09-16T07:34:22.334Z,7456.00
2017-09-16T07:35:22.357Z,7516.00
2017-09-16T07:36:22.380Z,8116.00
2017-09-16T07:37:22.395Z,9008.00
2017-09-16T07:38:22.410Z,7640.00
2017-09-16T07:39:22.432Z,7108.00
2017-09-16T07:40:22.456Z,6936.00
2017-09-16T07:41:22.478Z,7124.00
2017-09-16T07:42:22.486Z,7284.00
2017-09-16T07:43:22.523Z,7884.00
2017-09-16T07:44:22.534Z,8532.00
2017-09-16T07:45:22.548Z,7704.00
2017-09-16T07:46:22.569Z,7124.00
2017-09-16T07:47:22.589Z,7568.00
2017-09-16T07:48:22.611Z,7128.00
2017-09-16T07:49:22.624Z,7148.00
2017-09-16T07:50:22.658Z,7652.00
2017-09-16T07:51:22.669Z,9524.00
2017-09-16T07:52:22.693Z,9060.00
2017-09-16T07:53:22.703Z,11192.00
2017-09-16T07:54:22.728Z,27648.00
2017-09-16T07:55:22.744Z,41824.00
2017-09-16T07:56:22.762Z,10584.00
2017-09-16T07:57:22.787Z,10168.00
2017-09-16T07:58:22.810Z,12920.00
2017-09-16T07:59:22.820Z,11648.00
2017-09-16T08:00:22.842Z,9796.00
2017-09-16T08:01:22.869Z,9932.00
2017-09-16T08:02:22.883Z,11900.00
2017-09-16T08:03:22.900Z,42880.00
2017-09-16T08:04:22.927Z,14608.00
2017-09-16T08:05:22.956Z,12916.00
2017-09-16T08:06:22.968Z,15712.00
2017-09-16T08:07:22.989Z,16896.00
2017-09-16T08:08:23.007Z,18624.00
2017-09-16T08:09:23.021Z,27584.00
2017-09-16T08:10:23.049Z,20160.00
2017-09-16T08:11:23.069Z,40352.00
2017-09-16T08:12:23.084Z,24576.00
2017-09-16T08:13:23.108Z,20896.00
2017-09-16T08:14:23.130Z,17856.00
2017-09-16T08:15:23.151Z,32352.00
2017-09-16T08:16:23.169Z,42464.00
2017-09-16T08:17:23.190Z,28768.00
2017-09-16T08:18:23.226Z,21120.00
2017-09-16T08:19:23.235Z,22400.00
2017-09-16T08:20:23.272Z,20992.00
2017-09-16T08:21:23.283Z,17056.00
2017-09-16T08:22:23.296Z,17312.00
2017-09-16T08:23:23.325Z,15376.00
2017-09-16T08:24:23.340Z,17568.00
2017-09-16T08:25:23.363Z,18144.00
2017-09-16T08:26:23.389Z,17824.00
2017-09-16T08:27:23.409Z,14908.00
2017-09-16T08:28:23.422Z,15948.00
2017-09-16T08:29:23.450Z,16060.00
2017-09-16T08:30:23.464Z,15968.00
2017-09-16T08:31:23.490Z,15720.00
2017-09-16T08:32:23.519Z,13268.00
2017-09-16T08:33:23.532Z,13704.00
2017-09-16T08:34:23.568Z,13112.00
2017-09-16T08:35:23.590Z,11964.00
2017-09-16T08:36:23.607Z,14508.00
2017-09-16T08:37:23.620Z,17664.00
2017-09-16T08:38:23.637Z,16968.00
2017-09-16T08:39:23.660Z,16368.00
2017-09-16T08:40:23.687Z,15532.00
2017-09-16T08:41:23.700Z,13624.00
2017-09-16T08:42:23.723Z,12340.00
2017-09-16T08:43:23.768Z,11992.00
2017-09-16T08:44:23.763Z,11296.00
2017-09-16T08:45:23.788Z,10596.00
2017-09-16T08:46:23.810Z,10300.00
2017-09-16T08:47:23.827Z,9856.00
2017-09-16T08:48:23.847Z,9620.00
2017-09-16T08:49:23.876Z,10092.00
2017-09-16T08:50:23.889Z,10140.00
2017-09-16T08:51:23.910Z,11244.00
2017-09-16T08:52:23.937Z,10620.00
2017-09-16T08:53:23.953Z,10504.00
2017-09-16T08:54:23.979Z,12132.00
2017-09-16T08:55:23.997Z,12324.00
2017-09-16T08:56:24.023Z,11740.00
2017-09-16T08:57:24.035Z,10804.00
2017-09-16T08:58:24.064Z,10676.00
2017-09-16T08:59:24.079Z,11248.00
2017-09-16T09:00:24.104Z,12388.00
2017-09-16T09:01:24.123Z,12276.00
2017-09-16T09:02:24.151Z,12364.00
2017-09-16T09:03:24.168Z,12280.00
2017-09-16T09:04:24.192Z,11752.00
2017-09-16T09:05:24.216Z,11804.00
2017-09-16T09:06:24.228Z,12160.00
2017-09-16T09:07:24.248Z,12412.00
2017-09-16T09:08:24.266Z,12528.00
2017-09-16T09:09:24.417Z,13280.00
2017-09-16T09:10:24.306Z,13352.00
2017-09-16T09:11:24.343Z,12844.00
2017-09-16T09:12:24.360Z,12368.00
2017-09-16T09:13:24.380Z,12264.00
2017-09-16T09:14:24.396Z,12512.00
2017-09-16T09:15:24.419Z,13812.00
2017-09-16T09:16:24.442Z,14220.00
2017-09-16T09:17:24.449Z,13724.00
2017-09-16T09:18:24.483Z,14684.00
2017-09-16T09:19:24.492Z,14292.00
2017-09-16T09:20:24.525Z,12356.00
2017-09-16T09:21:24.541Z,11940.00
2017-09-16T09:22:24.557Z,12560.00
2017-09-16T09:23:24.586Z,13340.00
2017-09-16T09:24:24.601Z,13396.00
2017-09-16T09:25:24.623Z,15048.00
2017-09-16T09:26:24.649Z,17088.00
2017-09-16T09:27:24.666Z,17824.00
2017-09-16T09:28:24.685Z,16520.00
2017-09-16T09:29:24.708Z,15256.00
2017-09-16T09:30:24.726Z,15436.00
2017-09-16T09:31:24.750Z,16280.00
2017-09-16T09:32:24.774Z,17824.00
2017-09-16T09:33:24.807Z,18432.00
2017-09-16T09:34:24.812Z,18912.00
2017-09-16T09:35:24.838Z,19328.00
2017-09-16T09:36:24.858Z,19136.00
2017-09-16T09:37:24.878Z,19008.00
2017-09-16T09:38:24.901Z,20096.00
2017-09-16T09:39:24.917Z,19840.00
2017-09-16T09:40:24.943Z,19456.00
2017-09-16T09:41:24.967Z,19776.00
2017-09-16T09:42:24.988Z,19136.00
2017-09-16T09:43:25.010Z,16984.00
2017-09-16T09:44:25.034Z,17504.00
2017-09-16T09:45:25.060Z,17020.00
2017-09-16T09:46:25.198Z,15136.00
2017-09-16T09:47:25.092Z,15640.00
2017-09-16T09:48:25.116Z,15104.00
2017-09-16T09:49:25.143Z,15136.00
2017-09-16T09:50:25.165Z,14388.00
2017-09-16T09:51:25.181Z,13832.00
2017-09-16T09:52:25.205Z,13420.00
2017-09-16T09:53:25.226Z,13696.00
2017-09-16T09:54:25.249Z,15536.00
2017-09-16T09:55:25.271Z,16928.00
2017-09-16T09:56:25.300Z,18048.00
2017-09-16T09:57:25.316Z,16304.00
2017-09-16T09:58:25.337Z,15628.00
2017-09-16T09:59:25.371Z,15884.00
2017-09-16T10:00:25.376Z,17792.00
2017-09-16T10:01:25.400Z,18016.00
2017-09-16T10:02:25.432Z,18528.00
2017-09-16T10:03:25.448Z,17728.00
2017-09-16T10:04:25.471Z,17792.00
2017-09-16T10:05:25.494Z,20320.00
2017-09-16T10:06:25.518Z,19424.00
2017-09-16T10:07:25.540Z,19328.00
2017-09-16T10:08:25.553Z,20096.00
2017-09-16T10:09:25.581Z,18720.00
2017-09-16T10:10:25.601Z,17760.00
2017-09-16T10:11:25.620Z,19456.00
2017-09-16T10:12:25.650Z,19840.00
2017-09-16T10:13:25.672Z,17376.00
2017-09-16T10:14:25.685Z,17120.00
2017-09-16T10:15:25.713Z,17440.00
2017-09-16T10:16:25.733Z,18176.00
2017-09-16T10:17:25.757Z,18816.00
2017-09-16T10:18:25.778Z,17760.00
2017-09-16T10:19:25.801Z,17696.00
2017-09-16T10:20:25.825Z,17664.00
2017-09-16T10:21:25.849Z,18816.00
2017-09-16T10:22:25.874Z,19104.00
2017-09-16T10:23:25.899Z,18304.00
2017-09-16T10:24:25.915Z,17920.00
2017-09-16T10:25:25.942Z,17280.00
2017-09-16T10:26:25.967Z,15812.00
2017-09-16T10:27:25.990Z,14824.00
2017-09-16T10:28:26.005Z,13396.00
2017-09-16T10:29:26.034Z,13492.00
2017-09-16T10:30:26.049Z,14692.00
2017-09-16T10:31:26.078Z,17100.00
2017-09-16T10:32:26.101Z,18080.00
2017-09-16T10:33:26.118Z,18528.00
2017-09-16T10:34:26.145Z,19968.00
2017-09-16T10:35:26.166Z,20704.00
2017-09-16T10:36:26.185Z,20096.00
2017-09-16T10:37:26.222Z,18336.00
2017-09-16T10:38:26.246Z,16540.00
2017-09-16T10:39:26.261Z,14688.00
2017-09-16T10:40:26.277Z,12500.00
2017-09-16T10:41:26.300Z,11256.00
2017-09-16T10:42:26.326Z,10528.00
2017-09-16T10:43:26.352Z,10320.00
2017-09-16T10:44:26.390Z,10796.00
2017-09-16T10:45:26.393Z,13396.00
2017-09-16T10:46:26.418Z,15260.00
2017-09-16T10:47:26.438Z,13900.00
2017-09-16T10:48:26.464Z,13892.00
2017-09-16T10:49:26.489Z,14908.00
2017-09-16T10:50:26.511Z,14192.00
2017-09-16T10:51:26.534Z,13104.00
2017-09-16T10:52:26.554Z,12152.00
2017-09-16T10:53:26.577Z,11664.00
2017-09-16T10:54:26.596Z,11660.00
2017-09-16T10:55:26.628Z,12464.00
2017-09-16T10:56:26.648Z,13024.00
2017-09-16T10:57:26.668Z,11980.00
2017-09-16T10:58:26.687Z,11160.00
2017-09-16T10:59:26.714Z,10600.00
2017-09-16T11:00:26.735Z,11000.00
2017-09-16T11:01:26.755Z,10664.00
2017-09-16T11:02:26.778Z,10416.00
2017-09-16T11:03:26.806Z,10896.00
2017-09-16T11:04:26.820Z,11024.00
2017-09-16T11:05:26.842Z,10760.00
2017-09-16T11:06:26.865Z,10924.00
2017-09-16T11:07:26.892Z,12920.00
2017-09-16T11:08:26.913Z,13708.00
2017-09-16T11:09:26.944Z,13524.00
2017-09-16T11:10:26.961Z,12100.00
2017-09-16T11:11:26.980Z,10728.00
2017-09-16T11:12:27.001Z,10236.00
2017-09-16T11:13:27.021Z,11408.00
2017-09-16T11:14:27.044Z,11288.00
2017-09-16T11:15:27.079Z,12856.00
2017-09-16T11:16:27.088Z,12972.00
2017-09-16T11:17:27.115Z,13816.00
2017-09-16T11:18:27.136Z,11684.00
2017-09-16T11:19:27.166Z,11116.00
2017-09-16T11:20:27.175Z,12136.00
2017-09-16T11:21:27.211Z,13064.00
2017-09-16T11:22:27.225Z,13628.00
2017-09-16T11:23:27.264Z,13360.00
2017-09-16T11:24:27.265Z,15580.00
2017-09-16T11:25:27.295Z,17216.00
2017-09-16T11:26:27.317Z,17024.00
2017-09-16T11:27:27.339Z,15876.00
2017-09-16T11:28:27.355Z,15876.00
2017-09-16T11:29:27.374Z,15796.00
2017-09-16T11:30:27.397Z,17216.00
2017-09-16T11:31:27.425Z,17184.00
2017-09-16T11:32:27.476Z,17152.00
2017-09-16T11:33:27.466Z,17024.00
2017-09-16T11:34:27.485Z,17216.00
2017-09-16T11:35:27.510Z,17248.00
2017-09-16T11:36:27.531Z,18208.00
2017-09-16T11:37:27.554Z,15904.00
2017-09-16T11:38:27.578Z,14636.00
2017-09-16T11:39:27.604Z,14436.00
2017-09-16T11:40:27.629Z,14948.00
2017-09-16T11:41:27.651Z,15584.00
2017-09-16T11:42:27.683Z,15728.00
2017-09-16T11:43:27.703Z,14664.00
2017-09-16T11:44:27.716Z,14772.00
2017-09-16T11:45:27.732Z,15764.00
2017-09-16T11:46:27.760Z,15732.00
2017-09-16T11:47:27.781Z,16512.00
2017-09-16T11:48:27.807Z,15396.00
2017-09-16T11:49:27.830Z,15188.00
2017-09-16T11:50:27.851Z,14608.00
2017-09-16T11:51:27.879Z,14904.00
2017-09-16T11:52:27.897Z,13740.00
2017-09-16T11:53:27.918Z,14532.00
2017-09-16T11:54:27.946Z,14604.00
2017-09-16T11:55:27.975Z,15664.00
2017-09-16T11:56:27.989Z,15496.00
2017-09-16T11:57:28.009Z,14468.00
2017-09-16T11:58:28.034Z,14552.00
2017-09-16T11:59:28.059Z,12560.00
2017-09-16T12:00:28.082Z,13328.00
2017-09-16T12:01:28.110Z,15904.00
2017-09-16T12:02:28.136Z,16544.00
2017-09-16T12:03:28.147Z,15376.00
2017-09-16T12:04:28.175Z,15940.00
2017-09-16T12:05:28.198Z,15364.00
2017-09-16T12:06:28.230Z,12504.00
2017-09-16T12:07:28.243Z,11412.00
2017-09-16T12:08:28.270Z,11328.00
2017-09-16T12:09:28.289Z,12340.00
2017-09-16T12:10:28.316Z,12952.00
2017-09-16T12:11:28.338Z,13068.00
2017-09-16T12:12:28.365Z,12732.00
2017-09-16T12:13:28.382Z,12404.00
2017-09-16T12:14:28.418Z,12064.00
2017-09-16T12:15:28.429Z,12220.00
2017-09-16T12:16:28.463Z,12776.00
2017-09-16T12:17:28.486Z,12848.00
2017-09-16T12:18:28.497Z,12356.00
2017-09-16T12:19:28.520Z,12240.00
2017-09-16T12:20:28.547Z,12868.00
2017-09-16T12:21:28.578Z,13132.00
2017-09-16T12:22:28.588Z,13576.00
2017-09-16T12:23:28.608Z,13032.00
2017-09-16T12:24:28.635Z,12756.00